Time;durP1;ratioP1;P1;durP2;ratioP2;P2;SDS_P1;SDS_P2;PMS_P1;PMS_P2;Temp;Humidity;BMP_temperature;BMP_pressure;BME280_temperature;BME280_humidity;BME280_pressure;Samples;Min_cycle;Max_cycle;Signal;HPM_P1;HPM_P2
2023/02/20 00:01:19;;;;;;;13.10;4.40;;;;;;;1.60;99.86;98615.77;105942;1260;61224;-78
2023/02/20 00:03:45;;;;;;;10.60;5.10;;;;;;;1.63;100.00;98620.84;105952;1256;74583;-77
2023/02/20 00:06:12;;;;;;;8.90;3.10;;;;;;;1.64;99.95;98611.05;105978;1260;61151;-77
2023/02/20 00:08:38;;;;;;;7.80;4.00;;;;;;;1.67;100.00;98611.85;105847;1256;89320;-78
2023/02/20 00:11:04;;;;;;;10.80;3.70;;;;;;;1.69;100.00;98609.05;105906;1256;61351;-77
2023/02/20 00:13:31;;;;;;;11.10;3.60;;;;;;;1.69;99.98;98608.77;106018;1261;61315;-77
2023/02/20 00:15:57;;;;;;;6.20;3.40;;;;;;;1.70;100.00;98609.38;105980;1260;61266;-77
2023/02/20 00:18:24;;;;;;;10.30;3.60;;;;;;;1.71;100.00;98606.35;105951;1261;61362;-77
2023/02/20 00:20:50;;;;;;;7.20;3.40;;;;;;;1.72;100.00;98607.70;105916;1260;61580;-78
2023/02/20 00:23:17;;;;;;;8.00;3.40;;;;;;;1.72;100.00;98603.59;106000;1256;61455;-78
2023/02/20 00:25:43;;;;;;;6.10;3.10;;;;;;;1.72;100.00;98597.05;105937;1260;61275;-77
2023/02/20 00:28:10;;;;;;;13.30;3.70;;;;;;;1.70;100.00;98598.77;105925;1262;61355;-77
2023/02/20 00:30:36;;;;;;;9.60;3.50;;;;;;;1.69;100.00;98595.85;105947;1261;61793;-78
2023/02/20 00:33:02;;;;;;;8.60;3.50;;;;;;;1.68;100.00;98596.80;106039;1256;61411;-78
2023/02/20 00:35:29;;;;;;;6.30;3.40;;;;;;;1.68;100.00;98594.79;105938;1256;61346;-78
2023/02/20 00:37:55;;;;;;;7.10;4.40;;;;;;;1.69;100.00;98597.17;106084;1257;61349;-77
2023/02/20 00:40:23;;;;;;;7.20;3.20;;;;;;;1.70;100.00;98595.36;106010;1254;61150;-77
2023/02/20 00:42:49;;;;;;;9.90;3.20;;;;;;;1.73;100.00;98591.92;106176;1258;61245;-76
2023/02/20 00:45:16;;;;;;;10.60;3.40;;;;;;;1.73;100.00;98590.97;105879;1254;61394;-77
2023/02/20 00:47:42;;;;;;;6.40;2.60;;;;;;;1.74;100.00;98591.75;106072;1259;61345;-77
2023/02/20 00:50:09;;;;;;;5.40;2.60;;;;;;;1.75;100.00;98591.95;106087;1254;59352;-78
2023/02/20 00:52:38;;;;;;;6.50;2.30;;;;;;;1.75;100.00;98584.74;106083;1254;74122;-78
2023/02/20 00:55:05;;;;;;;8.20;2.90;;;;;;;1.76;100.00;98583.55;105994;1259;70656;-78
2023/02/20 00:57:31;;;;;;;5.10;3.00;;;;;;;1.78;100.00;98582.14;106059;1254;71451;-77
2023/02/20 00:59:58;;;;;;;7.00;2.90;;;;;;;1.78;100.00;98579.67;106038;1259;61301;-77
2023/02/20 01:02:24;;;;;;;11.80;3.40;;;;;;;1.78;100.00;98573.30;106181;1259;61112;-79
2023/02/20 01:04:51;;;;;;;5.80;2.80;;;;;;;1.78;100.00;98573.84;106118;1254;62402;-76
2023/02/20 01:07:17;;;;;;;14.20;2.10;;;;;;;1.78;100.00;98569.14;106119;1254;61311;-77
2023/02/20 01:09:44;;;;;;;5.90;2.60;;;;;;;1.79;100.00;98561.83;105910;1259;61196;-76
2023/02/20 01:12:10;;;;;;;8.20;3.30;;;;;;;1.79;100.00;98558.38;106102;1259;61228;-76
2023/02/20 01:14:37;;;;;;;8.80;2.10;;;;;;;1.79;100.00;98560.36;106023;1258;61365;-77
2023/02/20 01:17:03;;;;;;;7.00;2.60;;;;;;;1.79;100.00;98558.02;106052;1258;61282;-77
2023/02/20 01:19:29;;;;;;;10.30;3.10;;;;;;;1.79;100.00;98559.28;106052;1254;62424;-77
2023/02/20 01:21:56;;;;;;;5.80;2.40;;;;;;;1.79;100.00;98562.16;105939;1254;61442;-77
2023/02/20 01:24:22;;;;;;;6.70;3.40;;;;;;;1.78;100.00;98564.21;106016;1254;61355;-77
2023/02/20 01:26:49;;;;;;;4.90;2.00;;;;;;;1.77;100.00;98570.02;106052;1259;61233;-77
2023/02/20 01:29:15;;;;;;;5.60;2.40;;;;;;;1.77;100.00;98574.42;106058;1254;61274;-79
2023/02/20 01:31:47;;;;;;;6.20;2.40;;;;;;;1.77;100.00;98580.80;105947;1254;61358;-77
2023/02/20 01:34:13;;;;;;;5.70;2.30;;;;;;;1.76;100.00;98586.76;106067;1254;72566;-77
2023/02/20 01:36:47;;;;;;;7.70;2.80;;;;;;;1.76;100.00;98581.70;105996;1254;61250;-78
2023/02/20 01:39:18;;;;;;;6.70;3.30;;;;;;;1.75;100.00;98580.60;106112;1259;61209;-78
2023/02/20 01:41:46;;;;;;;6.30;2.50;;;;;;;1.75;100.00;98583.43;105971;1257;74578;-77
2023/02/20 01:44:20;;;;;;;10.20;2.90;;;;;;;1.75;100.00;98587.30;106112;1259;71174;-78
2023/02/20 01:46:50;;;;;;;7.80;3.10;;;;;;;1.75;100.00;98581.76;105931;1257;71399;-77
2023/02/20 01:49:20;;;;;;;8.10;3.20;;;;;;;1.76;100.00;98584.01;106004;1259;61435;-78
2023/02/20 01:51:50;;;;;;;9.10;3.60;;;;;;;1.75;100.00;98576.12;105991;1255;61343;-77
2023/02/20 01:54:18;;;;;;;12.20;3.40;;;;;;;1.74;100.00;98572.47;106020;1257;74902;-77
2023/02/20 01:56:44;;;;;;;8.60;3.70;;;;;;;1.73;100.00;98571.90;105910;1259;70246;-78
2023/02/20 01:59:11;;;;;;;8.50;3.40;;;;;;;1.71;100.00;98561.79;105943;1257;61333;-78
2023/02/20 02:01:37;;;;;;;7.10;2.90;;;;;;;1.71;100.00;98564.66;105914;1258;61401;-78
2023/02/20 02:04:06;;;;;;;11.90;3.60;;;;;;;1.72;100.00;98560.89;106023;1257;61438;-77
2023/02/20 02:06:33;;;;;;;;;;;;;;;1.72;100.00;98555.70;106033;1257;74033;-77
2023/02/20 02:09:02;;;;;;;7.40;3.40;;;;;;;1.70;100.00;98555.48;106005;1256;69958;-78
2023/02/20 02:11:29;;;;;;;9.20;3.30;;;;;;;1.71;100.00;98547.06;105909;1257;72608;-77
2023/02/20 02:13:55;;;;;;;7.70;3.20;;;;;;;1.70;100.00;98543.94;105939;1257;61363;-77
2023/02/20 02:16:40;;;;;;;8.00;2.60;;;;;;;1.69;100.00;98536.62;105955;1260;61425;-77
2023/02/20 02:19:39;;;;;;;6.20;2.70;;;;;;;1.68;100.00;98535.15;105935;1259;74630;-78
2023/02/20 02:22:29;;;;;;;3.20;1.90;;;;;;;1.69;100.00;98532.88;105944;1258;69997;-77
2023/02/20 02:25:31;;;;;;;7.80;2.60;;;;;;;1.70;100.00;98528.10;105961;1256;72270;-78
2023/02/20 02:28:33;;;;;;;6.70;2.40;;;;;;;1.69;100.00;98528.67;105901;1257;62459;-78
2023/02/20 02:31:10;;;;;;;8.30;2.30;;;;;;;1.70;100.00;98526.02;105756;1260;61321;-78
2023/02/20 02:33:42;;;;;;;10.80;2.50;;;;;;;1.71;100.00;98518.91;105974;1260;73694;-78
2023/02/20 02:36:27;;;;;;;3.80;2.50;;;;;;;1.73;100.00;98511.88;105882;1257;69936;-76
2023/02/20 02:38:58;;;;;;;6.60;2.60;;;;;;;1.76;100.00;98503.43;106008;1259;73135;-77
2023/02/20 02:41:43;;;;;;;6.80;2.70;;;;;;;1.77;100.00;98502.98;105998;1259;61234;-78
2023/02/20 02:44:16;;;;;;;6.20;2.70;;;;;;;1.77;100.00;98499.39;106163;1257;61215;-77
2023/02/20 02:47:06;;;;;;;6.60;2.10;;;;;;;1.77;100.00;98506.80;106019;1259;74603;-78
2023/02/20 02:49:50;;;;;;;7.30;3.20;;;;;;;1.78;100.00;98508.89;106006;1254;70973;-78
2023/02/20 02:52:37;;;;;;;4.40;2.60;;;;;;;1.77;100.00;98507.08;106106;1254;72589;-79
2023/02/20 02:55:04;;;;;;;9.30;2.10;;;;;;;1.75;100.00;98495.17;106029;1259;61106;-78
2023/02/20 02:57:31;;;;;;;8.30;2.50;;;;;;;1.75;100.00;98491.14;106110;1259;61181;-78
2023/02/20 03:00:02;;;;;;;11.30;4.70;;;;;;;1.74;100.00;98480.71;106073;1254;61249;-77
2023/02/20 03:02:32;;;;;;;9.60;3.30;;;;;;;1.72;100.00;98479.36;106046;1259;72294;-76
2023/02/20 03:04:59;;;;;;;18.00;6.90;;;;;;;1.71;100.00;98484.38;106081;1258;71836;-77
2023/02/20 03:07:26;;;;;;;16.80;6.10;;;;;;;1.67;100.00;98483.73;106046;1261;61208;-77
2023/02/20 03:10:03;;;;;;;17.00;7.20;;;;;;;1.65;100.00;98489.95;106014;1261;62154;-78
2023/02/20 03:12:30;;;;;;;15.90;8.00;;;;;;;1.63;100.00;98495.75;106085;1254;74588;-76
2023/02/20 03:15:32;;;;;;;11.60;6.70;;;;;;;1.61;100.00;98501.74;105896;1259;61249;-76
2023/02/20 03:18:16;;;;;;;8.70;5.10;;;;;;;1.58;100.00;98507.31;106111;1260;72386;-77
2023/02/20 03:20:45;;;;;;;10.20;5.10;;;;;;;1.55;100.00;98507.66;106037;1254;61955;-77
2023/02/20 03:23:17;;;;;;;17.20;5.50;;;;;;;1.52;100.00;98504.89;106008;1259;61212;-76
2023/02/20 03:25:54;;;;;;;13.50;7.30;;;;;;;1.50;100.00;98494.02;106026;1255;74854;-78
2023/02/20 03:28:26;;;;;;;13.30;7.80;;;;;;;1.49;100.00;98479.77;106015;1259;70991;-78
2023/02/20 03:31:03;;;;;;;17.70;5.90;;;;;;;1.47;100.00;98461.86;106012;1254;71379;-76
2023/02/20 03:44:43;;;;;;;5.90;4.00;;;;;;;1.36;100.00;98447.80;105916;1260;72781;-76
2023/02/20 03:47:11;;;;;;;9.80;5.60;;;;;;;1.37;100.00;98441.48;105927;1259;61221;-77
2023/02/20 03:49:40;;;;;;;10.70;6.10;;;;;;;1.38;100.00;98440.49;106012;1260;61186;-76
2023/02/20 03:52:06;;;;;;;8.90;3.90;;;;;;;1.39;100.00;98437.70;106034;1260;74540;-77
2023/02/20 03:54:33;;;;;;;9.20;4.80;;;;;;;1.39;100.00;98435.55;106015;1260;71094;-77
2023/02/20 03:57:11;;;;;;;11.90;3.90;;;;;;;1.37;100.00;98433.81;105897;1260;71460;-76
2023/02/20 03:59:41;;;;;;;16.80;5.00;;;;;;;1.38;100.00;98435.31;106017;1259;61676;-77
2023/02/20 04:02:32;;;;;;;7.70;3.60;;;;;;;1.39;100.00;98436.95;106010;1258;61397;-78
2023/02/20 04:05:04;;;;;;;7.90;3.80;;;;;;;1.39;100.00;98438.84;105914;1259;74940;-76
2023/02/20 04:07:49;;;;;;;11.40;4.80;;;;;;;1.40;100.00;98438.71;105993;1257;70932;-78
2023/02/20 04:10:19;;;;;;;13.50;5.40;;;;;;;1.39;100.00;98440.40;105946;1259;72549;-77
2023/02/20 04:12:46;;;;;;;11.70;5.10;;;;;;;1.39;100.00;98447.64;106099;1260;61402;-76
2023/02/20 04:15:12;;;;;;;10.00;3.40;;;;;;;1.39;100.00;98452.45;105977;1260;61209;-76
2023/02/20 04:17:43;;;;;;;15.70;6.10;;;;;;;1.38;100.00;98458.61;106037;1255;74607;-77
2023/02/20 04:20:09;;;;;;;11.50;4.40;;;;;;;1.36;100.00;98462.04;105918;1259;70026;-78
2023/02/20 04:22:38;;;;;;;9.40;3.60;;;;;;;1.33;100.00;98461.03;105911;1260;72566;-78
2023/02/20 04:25:06;;;;;;;;;;;;;;;1.27;100.00;98458.39;106045;1260;61115;-76
2023/02/20 04:27:32;;;;;;;16.60;5.90;;;;;;;1.24;100.00;98456.13;105968;1259;61157;-76
2023/02/20 04:29:59;;;;;;;12.50;5.90;;;;;;;1.16;100.00;98449.86;105915;1259;61279;-78
2023/02/20 04:32:25;;;;;;;11.40;5.80;;;;;;;1.07;100.00;98449.27;105993;1260;61533;-76
2023/02/20 04:34:52;;;;;;;18.20;14.20;;;;;;;0.98;100.00;98448.30;105961;1260;61211;-77
2023/02/20 04:37:18;;;;;;;13.20;7.70;;;;;;;0.92;100.00;98446.77;105974;1260;61345;-77
2023/02/20 04:39:45;;;;;;;10.40;6.70;;;;;;;0.87;100.00;98442.11;105978;1259;61349;-76
2023/02/20 04:42:11;;;;;;;10.90;5.50;;;;;;;0.79;100.00;98439.70;106041;1259;61365;-77
2023/02/20 04:44:38;;;;;;;9.60;4.20;;;;;;;0.72;100.00;98437.90;106127;1259;61241;-76
2023/02/20 04:47:06;;;;;;;7.30;4.40;;;;;;;0.63;100.00;98442.09;106101;1254;71938;-76
2023/02/20 04:49:33;;;;;;;23.90;7.30;;;;;;;0.54;100.00;98429.97;106166;1255;61253;-76
2023/02/20 04:51:59;;;;;;;17.50;6.50;;;;;;;0.42;100.00;98427.19;106027;1258;61209;-76
2023/02/20 04:54:26;;;;;;;17.50;8.90;;;;;;;0.26;100.00;98421.77;106160;1259;61355;-79
2023/02/20 04:56:52;;;;;;;41.30;21.60;;;;;;;0.14;100.00;98413.15;106110;1260;61390;-79
2023/02/20 04:59:19;;;;;;;40.40;19.00;;;;;;;0.02;100.00;98413.30;106085;1267;61355;-78
2023/02/20 05:01:48;;;;;;;26.50;14.50;;;;;;;-0.09;100.00;98405.69;106038;1258;61244;-77
2023/02/20 05:04:14;;;;;;;28.80;14.10;;;;;;;-0.16;100.00;98398.23;106025;1260;60338;-77
2023/02/20 05:06:42;;;;;;;26.70;14.30;;;;;;;-0.20;100.00;98391.93;106032;1259;75660;-77
2023/02/20 05:09:09;;;;;;;24.00;13.20;;;;;;;-0.28;100.00;98396.98;106018;1260;69445;-79
2023/02/20 05:11:37;;;;;;;21.00;11.60;;;;;;;-0.34;100.00;98403.38;105989;1255;73732;-77
2023/02/20 05:14:04;;;;;;;28.30;17.10;;;;;;;-0.41;100.00;98411.68;106093;1260;61282;-78
2023/02/20 05:16:30;;;;;;;20.10;12.00;;;;;;;-0.44;100.00;98415.75;106037;1260;61256;-77
2023/02/20 05:18:57;;;;;;;15.40;9.00;;;;;;;-0.50;100.00;98415.69;106014;1260;61158;-77
2023/02/20 05:24:08;;;;;;;37.20;16.00;;;;;;;-0.60;100.00;98409.38;106025;1259;72522;-78
2023/02/20 05:26:34;;;;;;;39.30;18.90;;;;;;;-0.65;100.00;98399.86;105996;1260;61342;-76
2023/02/20 05:29:01;;;;;;;62.50;28.40;;;;;;;-0.71;100.00;98396.76;106188;1260;61263;-78
2023/02/20 05:31:27;;;;;;;71.80;34.00;;;;;;;-0.72;100.00;98391.55;106252;1258;61326;-76
2023/02/20 05:33:53;;;;;;;90.10;37.80;;;;;;;-0.73;100.00;98386.64;106037;1260;61337;-78
2023/02/20 05:36:20;;;;;;;97.20;39.60;;;;;;;-0.74;100.00;98391.52;106015;1260;61375;-78
2023/02/20 05:38:48;;;;;;;77.50;35.20;;;;;;;-0.72;100.00;98398.48;106065;1267;61354;-78
2023/02/20 05:41:14;;;;;;;54.70;29.10;;;;;;;-0.70;100.00;98400.08;105925;1260;61192;-78
2023/02/20 05:43:41;;;;;;;81.90;36.60;;;;;;;-0.68;100.00;98404.61;105957;1257;74443;-78
2023/02/20 05:46:07;;;;;;;75.90;35.20;;;;;;;-0.65;100.00;98392.91;105891;1258;61184;-78
2023/02/20 05:48:34;;;;;;;74.90;36.30;;;;;;;-0.63;100.00;98388.93;105928;1257;61326;-78
2023/02/20 05:51:00;;;;;;;73.10;36.60;;;;;;;-0.62;100.00;98386.15;105927;1260;61228;-78
2023/02/20 05:53:28;;;;;;;74.90;33.80;;;;;;;-0.60;100.00;98381.05;106007;1266;61332;-78
2023/02/20 05:55:54;;;;;;;68.10;35.80;;;;;;;-0.57;100.00;98385.86;105953;1260;74469;-76
2023/02/20 05:58:20;;;;;;;54.00;28.50;;;;;;;-0.53;100.00;98388.84;105935;1259;61253;-78
2023/02/20 06:00:47;;;;;;;48.10;25.80;;;;;;;-0.49;100.00;98392.48;105911;1258;62154;-76
2023/02/20 06:03:14;;;;;;;44.50;24.80;;;;;;;-0.41;100.00;98399.34;105961;1257;61272;-78
2023/02/20 06:05:40;;;;;;;37.60;18.40;;;;;;;-0.36;100.00;98396.23;106006;1259;61150;-78
2023/02/20 06:08:06;;;;;;;30.20;15.70;;;;;;;-0.36;100.00;98398.19;106011;1257;62395;-77
2023/02/20 06:10:33;;;;;;;24.10;12.20;;;;;;;-0.35;100.00;98391.72;105971;1259;61365;-78
2023/02/20 06:13:00;;;;;;;30.90;19.10;;;;;;;-0.33;100.00;98393.47;105923;1257;61787;-78
2023/02/20 06:15:26;;;;;;;35.40;22.80;;;;;;;-0.30;100.00;98394.05;105946;1258;62256;-78
2023/02/20 06:17:53;;;;;;;26.10;16.90;;;;;;;-0.23;100.00;98396.52;105950;1259;61294;-78
2023/02/20 06:20:22;;;;;;;25.70;11.60;;;;;;;-0.17;100.00;98403.78;105992;1259;61263;-76
2023/02/20 06:22:49;;;;;;;19.90;9.50;;;;;;;-0.11;100.00;98404.21;105964;1259;69935;-78
2023/02/20 06:25:15;;;;;;;20.40;11.10;;;;;;;-0.06;100.00;98400.54;105931;1258;72553;-79
2023/02/20 06:27:42;;;;;;;28.70;19.30;;;;;;;-0.00;100.00;98398.52;105910;1259;61378;-76
2023/02/20 06:30:09;;;;;;;28.70;18.70;;;;;;;0.05;100.00;98395.42;107901;1263;61313;-77
2023/02/20 06:32:35;;;;;;;22.70;13.00;;;;;;;0.10;100.00;98397.52;106773;1254;74552;-77
2023/02/20 06:35:02;;;;;;;30.60;16.90;;;;;;;0.19;100.00;98408.71;106060;1257;61329;-77
2023/02/20 06:37:28;;;;;;;31.50;17.10;;;;;;;0.31;100.00;98413.20;106407;1255;61388;-76
2023/02/20 06:39:55;;;;;;;47.40;19.80;;;;;;;0.41;100.00;98412.58;107621;1257;61265;-78
2023/02/20 06:42:21;;;;;;;29.20;17.90;;;;;;;0.49;100.00;98414.08;106672;1257;61222;-79
2023/02/20 06:44:48;;;;;;;23.20;15.10;;;;;;;0.58;100.00;98411.19;106570;1258;61090;-78
2023/02/20 06:47:14;;;;;;;29.10;16.50;;;;;;;0.66;100.00;98403.30;105972;1261;63048;-77
2023/02/20 06:49:42;;;;;;;28.10;14.90;;;;;;;0.73;100.00;98409.29;106277;1258;62413;-78
2023/02/20 06:52:09;;;;;;;32.20;17.20;;;;;;;0.81;100.00;98409.60;107705;1259;59128;-78
2023/02/20 06:54:35;;;;;;;19.40;12.10;;;;;;;0.89;100.00;98407.83;107899;1257;61250;-77
2023/02/20 06:57:02;;;;;;;24.10;10.80;;;;;;;0.98;100.00;98411.39;106358;1254;74949;-79
2023/02/20 06:59:28;;;;;;;21.70;10.90;;;;;;;1.08;100.00;98410.87;107069;1254;70106;-79
2023/02/20 07:01:55;;;;;;;17.40;11.40;;;;;;;1.18;100.00;98404.76;108088;1256;60380;-77
2023/02/20 07:28:02;;;;;;;14.90;5.40;;;;;;;2.39;100.00;98361.27;106705;1255;73371;-77
2023/02/20 07:30:28;;;;;;;9.60;4.10;;;;;;;2.48;100.00;98358.90;106716;1260;71294;-79
2023/02/20 07:32:55;;;;;;;10.70;4.70;;;;;;;2.57;100.00;98360.80;106939;1254;61346;-77
2023/02/20 07:35:21;;;;;;;8.40;3.40;;;;;;;2.64;99.95;98357.89;106530;1254;61314;-75
2023/02/20 07:37:47;;;;;;;5.70;2.90;;;;;;;2.78;99.76;98358.66;106749;1254;61256;-75
2023/02/20 07:40:14;;;;;;;7.20;3.80;;;;;;;2.93;98.20;98364.35;106847;1257;61346;-76
2023/02/20 07:42:40;;;;;;;8.80;3.50;;;;;;;3.00;96.84;98369.11;107608;1254;61327;-79
2023/02/20 07:45:08;;;;;;;7.70;2.70;;;;;;;2.99;95.94;98368.77;107519;1254;61125;-77
2023/02/20 07:47:35;;;;;;;8.30;2.60;;;;;;;2.93;93.65;98371.02;106217;1260;61363;-77
2023/02/20 07:50:02;;;;;;;9.10;3.30;;;;;;;2.92;93.96;98369.95;107026;1257;61107;-77
2023/02/20 07:52:28;;;;;;;7.50;2.50;;;;;;;2.93;93.82;98366.66;106887;1254;74082;-78
2023/02/20 07:54:54;;;;;;;7.20;2.80;;;;;;;2.97;91.97;98365.38;107173;1259;70084;-79
2023/02/20 07:57:21;;;;;;;8.50;2.80;;;;;;;3.07;92.29;98377.63;106293;1258;61153;-77
2023/02/20 07:59:48;;;;;;;12.30;3.00;;;;;;;3.11;91.32;98380.80;106316;1260;61276;-77
2023/02/20 08:02:14;;;;;;;6.70;2.70;;;;;;;3.11;91.34;98380.05;108581;1254;59669;-75
2023/02/20 08:04:41;;;;;;;10.20;3.80;;;;;;;3.10;91.62;98375.38;107531;1254;73433;-77
2023/02/20 08:07:07;;;;;;;7.60;3.80;;;;;;;3.13;90.51;98367.63;106144;1254;71112;-75
2023/02/20 08:09:34;;;;;;;6.60;3.50;;;;;;;3.16;89.79;98365.87;106365;1254;61231;-78
2023/02/20 08:12:00;;;;;;;7.70;3.90;;;;;;;3.20;90.22;98360.06;109053;1254;59231;-75
2023/02/20 08:14:27;;;;;;;9.90;3.00;;;;;;;3.22;90.87;98354.21;108835;1254;60340;-76
2023/02/20 08:16:53;;;;;;;8.60;3.60;;;;;;;3.23;90.70;98349.76;106892;1254;61230;-77
2023/02/20 08:19:20;;;;;;;6.30;3.70;;;;;;;3.35;90.99;98353.00;106877;1254;61336;-75
2023/02/20 08:21:46;;;;;;;16.40;7.10;;;;;;;3.46;91.60;98349.12;107770;1254;61438;-75
2023/02/20 08:24:13;;;;;;;12.00;5.00;;;;;;;3.60;91.39;98347.15;107511;1255;61209;-75
2023/02/20 08:26:46;;;;;;;7.10;3.80;;;;;;;3.73;90.00;98342.81;106174;1254;61256;-75
2023/02/20 08:29:13;;;;;;;10.10;4.60;;;;;;;3.82;90.87;98342.31;106148;1254;74551;-75
2023/02/20 08:31:39;;;;;;;18.30;10.90;;;;;;;3.96;89.59;98337.00;107819;1254;69598;-75
2023/02/20 08:34:06;;;;;;;18.60;6.60;;;;;;;4.07;90.41;98336.25;106732;1254;61355;-75
2023/02/20 08:36:33;;;;;;;9.60;4.10;;;;;;;4.18;91.35;98339.87;106336;1254;61351;-75
2023/02/20 08:38:59;;;;;;;24.70;11.20;;;;;;;4.24;90.74;98337.65;106152;1254;61212;-77
2023/02/20 08:41:25;;;;;;;11.00;6.50;;;;;;;4.31;90.60;98334.70;106540;1255;61148;-78
2023/02/20 08:43:52;;;;;;;19.50;7.50;;;;;;;4.37;90.29;98332.33;107888;1254;63356;-76
2023/02/20 08:46:18;;;;;;;23.00;7.60;;;;;;;4.43;89.80;98334.55;106073;1254;62360;-77
2023/02/20 08:48:45;;;;;;;14.90;6.20;;;;;;;4.50;90.49;98335.91;106379;1258;61282;-77
2023/02/20 08:51:11;;;;;;;16.10;6.60;;;;;;;4.59;90.72;98334.93;106442;1257;61208;-78
2023/02/20 08:53:38;;;;;;;9.90;4.30;;;;;;;4.66;90.73;98332.04;107260;1253;61255;-78
2023/02/20 08:56:05;;;;;;;7.60;2.80;;;;;;;4.70;88.98;98319.27;107726;1254;70424;-75
2023/02/20 08:58:32;;;;;;;5.80;3.00;;;;;;;4.75;88.84;98313.70;106661;1254;72582;-77
2023/02/20 09:00:58;;;;;;;7.30;3.60;;;;;;;4.72;88.20;98310.16;107399;1254;61435;-75
2023/02/20 09:03:26;;;;;;;8.40;3.20;;;;;;;4.77;89.59;98311.98;107124;1254;61202;-75
2023/02/20 09:05:52;;;;;;;27.80;17.90;;;;;;;4.78;88.89;98311.83;107486;1254;74498;-76
2023/02/20 09:08:18;;;;;;;14.50;9.40;;;;;;;4.75;88.61;98305.02;106103;1254;61266;-76
2023/02/20 09:10:45;;;;;;;6.60;3.70;;;;;;;4.79;88.90;98300.17;106376;1254;61337;-75
2023/02/20 09:13:13;;;;;;;12.90;4.40;;;;;;;4.82;89.32;98292.81;106551;1259;61154;-75
2023/02/20 09:15:39;;;;;;;6.70;4.00;;;;;;;4.88;89.34;98286.80;106529;1254;60279;-77
2023/02/20 09:18:08;;;;;;;13.50;4.00;;;;;;;5.04;88.95;98277.38;106622;1261;75279;-75
2023/02/20 09:20:36;;;;;;;9.10;4.70;;;;;;;5.09;89.36;98282.84;106565;1254;72711;-76
2023/02/20 09:23:04;;;;;;;12.00;3.70;;;;;;;5.08;88.53;98282.36;108674;1254;72981;-77
2023/02/20 09:25:30;;;;;;;10.10;4.50;;;;;;;5.07;89.18;98278.10;107484;1257;59522;-77
2023/02/20 09:27:57;;;;;;;6.80;3.50;;;;;;;5.09;89.64;98274.63;106991;1254;61106;-76
2023/02/20 09:30:23;;;;;;;8.90;4.00;;;;;;;5.17;89.48;98268.66;109275;1254;59133;-77
2023/02/20 09:32:50;;;;;;;6.20;3.90;;;;;;;5.23;88.77;98272.55;109233;1254;71017;-77
2023/02/20 09:35:21;;;;;;;6.00;3.00;;;;;;;5.31;89.11;98261.58;107936;1254;72270;-76
2023/02/20 09:37:48;;;;;;;6.40;3.00;;;;;;;5.42;89.00;98257.42;107883;1254;61212;-77
2023/02/20 09:40:16;;;;;;;9.50;3.60;;;;;;;5.58;89.15;98246.15;106721;1254;61418;-75
2023/02/20 09:42:50;;;;;;;10.40;4.70;;;;;;;5.61;88.30;98238.30;106800;1254;74646;-77
2023/02/20 09:45:22;;;;;;;12.00;4.80;;;;;;;5.66;89.43;98237.34;106598;1259;71305;-75
2023/02/20 09:47:58;;;;;;;11.60;4.20;;;;;;;5.69;89.61;98233.77;106260;1254;71630;-77
2023/02/20 09:50:35;;;;;;;7.40;3.50;;;;;;;5.73;89.37;98221.05;107039;1254;61253;-75
2023/02/20 09:53:23;;;;;;;8.90;3.50;;;;;;;5.71;89.05;98223.48;107155;1254;61231;-76
2023/02/20 09:55:50;;;;;;;22.00;9.80;;;;;;;5.76;89.74;98225.44;106030;1255;74524;-75
2023/02/20 09:58:27;;;;;;;38.10;16.40;;;;;;;5.84;90.17;98221.60;106642;1256;61233;-75
2023/02/20 10:00:56;;;;;;;13.60;7.50;;;;;;;5.91;89.67;98218.42;106755;1254;71899;-77
2023/02/20 10:03:34;;;;;;;7.90;3.90;;;;;;;5.93;90.06;98216.94;106849;1257;61259;-77
2023/02/20 10:06:01;;;;;;;9.60;4.70;;;;;;;5.95;89.29;98209.23;106000;1260;61341;-77
2023/02/20 10:08:27;;;;;;;12.10;6.30;;;;;;;5.90;88.99;98213.10;106335;1254;61260;-76
2023/02/20 10:10:55;;;;;;;4.60;3.50;;;;;;;5.90;89.60;98211.81;108392;1254;72254;-77
2023/02/20 10:13:46;;;;;;;7.90;4.10;;;;;;;5.95;90.16;98202.59;108127;1254;72519;-77
2023/02/20 10:16:19;;;;;;;7.50;3.40;;;;;;;6.10;90.62;98195.89;108428;1254;60450;-77
2023/02/20 10:19:10;;;;;;;16.00;4.80;;;;;;;6.23;90.37;98193.55;107581;1254;61232;-77
2023/02/20 10:22:12;;;;;;;8.20;3.50;;;;;;;6.40;90.31;98195.14;106993;1254;73389;-77
2023/02/20 10:24:48;;;;;;;5.80;2.30;;;;;;;6.49;88.97;98187.36;106957;1254;70260;-79
2023/02/20 10:27:29;;;;;;;4.60;2.70;;;;;;;6.47;89.04;98182.04;106608;1260;72943;-78
2023/02/20 10:29:57;;;;;;;13.20;3.10;;;;;;;6.54;89.71;98173.63;106410;1254;61343;-78
2023/02/20 10:33:03;;;;;;;2.60;2.00;;;;;;;6.62;89.96;98173.41;106191;1257;61250;-78
2023/02/20 10:35:41;;;;;;;6.00;3.30;;;;;;;6.60;89.04;98164.16;106143;1254;72835;-78
2023/02/20 10:38:10;;;;;;;4.10;2.50;;;;;;;6.57;89.54;98161.83;106002;1254;71142;-77
2023/02/20 10:40:38;;;;;;;5.00;2.40;;;;;;;6.58;89.61;98156.94;106814;1259;72632;-77
2023/02/20 10:43:26;;;;;;;2.90;1.80;;;;;;;6.51;90.22;98147.16;107115;1254;61118;-77
2023/02/20 10:46:16;;;;;;;3.20;2.40;;;;;;;6.48;90.86;98133.02;106317;1254;61263;-80
2023/02/20 10:48:44;;;;;;;3.60;2.00;;;;;;;6.46;91.28;98137.40;107026;1256;74640;-78
2023/02/20 10:51:13;;;;;;;3.30;2.00;;;;;;;6.44;91.80;98128.49;106478;1254;71066;-78
2023/02/20 10:53:54;;;;;;;4.50;2.30;;;;;;;6.45;91.95;98123.87;106282;1254;71523;-76
2023/02/20 10:56:26;;;;;;;6.00;2.90;;;;;;;6.39;92.08;98117.11;106716;1254;61195;-78
2023/02/20 10:59:16;;;;;;;6.10;2.40;;;;;;;6.44;92.28;98106.90;106607;1255;61228;-77
2023/02/20 11:01:43;;;;;;;3.50;1.70;;;;;;;6.42;92.62;98095.46;108146;1254;73520;-79
2023/02/20 11:04:16;;;;;;;8.10;2.60;;;;;;;6.29;93.26;98094.11;107067;1254;71143;-78
2023/02/20 11:06:51;;;;;;;12.70;5.40;;;;;;;6.25;93.88;98101.34;106451;1260;71385;-77
2023/02/20 11:09:18;;;;;;;4.30;2.10;;;;;;;6.28;93.81;98101.11;105925;1260;61211;-78
2023/02/20 11:11:45;;;;;;;8.90;3.80;;;;;;;6.23;93.90;98090.98;106038;1254;61159;-76
2023/02/20 11:14:14;;;;;;;3.50;1.80;;;;;;;6.18;94.21;98084.13;106314;1254;74531;-77
2023/02/20 11:17:14;;;;;;;10.80;6.30;;;;;;;6.11;94.70;98080.27;106234;1256;69986;-78
2023/02/20 11:19:43;;;;;;;10.40;5.10;;;;;;;6.21;94.99;98065.92;106689;1254;72521;-79
2023/02/20 11:22:10;;;;;;;8.70;4.80;;;;;;;6.16;95.23;98048.53;106398;1254;61313;-79
2023/02/20 11:24:38;;;;;;;11.90;6.10;;;;;;;6.14;95.68;98032.90;107078;1254;59404;-76
2023/02/20 11:27:08;;;;;;;9.20;4.80;;;;;;;6.18;95.67;98025.85;106039;1254;72564;-77
2023/02/20 11:30:12;;;;;;;19.20;8.60;;;;;;;6.30;95.82;98009.02;106336;1257;71076;-77
2023/02/20 11:32:39;;;;;;;13.50;8.00;;;;;;;6.38;95.59;98005.45;107118;1254;72593;-76
2023/02/20 11:35:18;;;;;;;25.30;13.60;;;;;;;6.52;95.70;98005.02;107106;1253;61254;-77
2023/02/20 11:37:49;;;;;;;73.60;37.60;;;;;;;6.56;95.56;98003.02;106129;1254;61214;-76
2023/02/20 11:40:29;;;;;;;101.20;52.10;;;;;;;6.61;95.08;97999.61;106606;1254;74630;-75
2023/02/20 11:43:15;;;;;;;113.80;55.50;;;;;;;6.59;95.35;97998.62;107003;1254;69508;-78
2023/02/20 11:45:41;;;;;;;63.40;34.30;;;;;;;6.57;95.36;98000.71;106171;1256;71458;-76
2023/02/20 11:48:15;;;;;;;22.60;11.90;;;;;;;6.53;95.38;97992.16;106000;1255;61237;-76
2023/02/20 11:50:43;;;;;;;27.80;20.40;;;;;;;6.51;95.12;97988.80;106318;1254;61311;-76
2023/02/20 11:53:28;;;;;;;10.70;7.20;;;;;;;6.50;95.30;97989.92;106913;1258;74581;-77
2023/02/20 11:56:11;;;;;;;6.50;4.10;;;;;;;6.45;95.43;97991.80;106223;1254;71388;-78
2023/02/20 11:58:39;;;;;;;5.30;3.50;;;;;;;6.45;95.02;97984.54;105917;1254;71985;-76
2023/02/20 12:01:05;;;;;;;9.60;4.10;;;;;;;6.41;94.38;97979.27;106988;1254;59175;-78
2023/02/20 12:03:33;;;;;;;22.30;10.20;;;;;;;6.36;94.79;97973.36;107092;1254;61205;-78
2023/02/20 12:06:03;;;;;;;12.00;6.60;;;;;;;6.37;94.80;97974.66;106258;1253;74098;-78
2023/02/20 12:08:36;;;;;;;23.00;10.60;;;;;;;6.37;94.58;97972.23;106009;1256;224719;-76
2023/02/20 12:11:06;;;;;;;44.60;28.60;;;;;;;6.35;94.41;97964.73;107250;1254;72647;-76
2023/02/20 12:13:36;;;;;;;79.90;39.20;;;;;;;6.38;94.48;97954.80;106231;1254;61295;-76